Brigg, United Kingdom
Current Conditions -  °F | °C
As of 3:50 PM on Thursday 27 Nov 2014 (Local Time) from EGNJ Reporting Station
Haze Haze  
Wind Chill: 52°   Ceiling: 500
Heat Index: 52°   Visibility: 2.8mi
Dew Point: 48°   Wind: 13mph
Humidity: 88%   Direction: 170°S
Pressure: 29.59"   Gusts: NA
Location:  53.55°N, 0.49°W
Report Text: EGNJ 271550Z 17011KT 4500 HZ BKN005 OVC014 11/09 Q1002
Loading
Personal Weather Stations






























Interactive Weather Map New forecast layout! Learn more

10-Day Weather Forecast

Advertisements
Track Severe Weather on mobile